createdAt,value
2019-05-14T06:15:44.721Z,5632.00
2019-05-14T06:16:29.749Z,5584.00
2019-05-14T06:17:29.774Z,5660.00
2019-05-14T06:18:29.780Z,5652.00
2019-05-14T06:19:29.790Z,5796.00
2019-05-14T06:20:29.797Z,5780.00
2019-05-14T06:21:29.822Z,5748.00
2019-05-14T06:22:29.813Z,5824.00
2019-05-14T06:23:29.825Z,5944.00
2019-05-14T06:24:29.905Z,5964.00
2019-05-14T06:25:31.169Z,5992.00
2019-05-14T06:26:29.852Z,6168.00
2019-05-14T06:27:29.869Z,6152.00
2019-05-14T06:28:33.295Z,6044.00
2019-05-14T06:29:29.932Z,6180.00
2019-05-14T06:30:29.906Z,6200.00
2019-05-14T06:31:29.923Z,6160.00
2019-05-14T06:32:29.930Z,6296.00
2019-05-14T06:33:29.934Z,6340.00
2019-05-14T06:34:29.959Z,6348.00
2019-05-14T06:35:29.961Z,6356.00
2019-05-14T06:36:29.972Z,6304.00
2019-05-14T06:37:30.207Z,6452.00
2019-05-14T06:38:30.042Z,6608.00
2019-05-14T06:39:30.065Z,6644.00
2019-05-14T06:40:30.023Z,6600.00
2019-05-14T06:41:30.033Z,6564.00
2019-05-14T06:42:30.047Z,6616.00
2019-05-14T06:43:30.065Z,6740.00
2019-05-14T06:44:30.075Z,6784.00
2019-05-14T06:45:30.088Z,6956.00
2019-05-14T06:46:30.109Z,7076.00
2019-05-14T06:47:30.106Z,7072.00
2019-05-14T06:48:34.346Z,7252.00
2019-05-14T06:49:30.134Z,7160.00
2019-05-14T06:50:30.151Z,7288.00
2019-05-14T06:51:30.157Z,7372.00
2019-05-14T06:52:30.171Z,7516.00
2019-05-14T06:53:30.192Z,7772.00
2019-05-14T06:54:30.194Z,7672.00
2019-05-14T06:55:30.209Z,7648.00
2019-05-14T06:56:30.225Z,7808.00
2019-05-14T06:57:30.242Z,7852.00
2019-05-14T06:58:30.252Z,7904.00
2019-05-14T06:59:30.367Z,7864.00
2019-05-14T07:00:30.270Z,8060.00
2019-05-14T07:01:30.294Z,8160.00
2019-05-14T07:02:30.306Z,8440.00
2019-05-14T07:03:30.321Z,9028.00
2019-05-14T07:04:30.338Z,8892.00
2019-05-14T07:05:30.345Z,7676.00
2019-05-14T07:06:30.354Z,7516.00
2019-05-14T07:07:30.414Z,8352.00
2019-05-14T07:08:30.382Z,8812.00
2019-05-14T07:09:30.404Z,8828.00
2019-05-14T07:10:30.422Z,9136.00
2019-05-14T07:11:30.425Z,9164.00
2019-05-14T07:12:30.442Z,9200.00
2019-05-14T07:13:30.475Z,9480.00
2019-05-14T07:14:30.548Z,9088.00
2019-05-14T07:15:30.513Z,9132.00
2019-05-14T07:16:30.503Z,9012.00
2019-05-14T07:17:30.509Z,9164.00
2019-05-14T07:18:45.734Z,9096.00
2019-05-14T07:19:30.540Z,9464.00
2019-05-14T07:20:30.565Z,8728.00
2019-05-14T07:21:30.568Z,8912.00
2019-05-14T07:22:30.590Z,9104.00
2019-05-14T07:23:30.597Z,8852.00
2019-05-14T07:24:30.609Z,8972.00
2019-05-14T07:25:30.638Z,9496.00
2019-05-14T07:26:30.655Z,9044.00
2019-05-14T07:27:30.674Z,8988.00
2019-05-14T07:28:30.681Z,9640.00
2019-05-14T07:29:30.697Z,8948.00
2019-05-14T07:30:30.708Z,8892.00
2019-05-14T07:31:30.717Z,9236.00
2019-05-14T07:32:30.736Z,9224.00
2019-05-14T07:33:30.748Z,9148.00
2019-05-14T07:34:30.789Z,9112.00
2019-05-14T07:35:30.769Z,9580.00
2019-05-14T07:36:30.797Z,9644.00
2019-05-14T07:37:30.814Z,9204.00
2019-05-14T07:38:30.824Z,8376.00
2019-05-14T07:39:30.836Z,9308.00
2019-05-14T07:40:30.857Z,9412.00
2019-05-14T07:41:30.877Z,9544.00
2019-05-14T07:42:30.885Z,9768.00
2019-05-14T07:43:30.901Z,9592.00
2019-05-14T07:44:30.919Z,10424.00
2019-05-14T07:45:33.307Z,10484.00
2019-05-14T07:46:30.950Z,9988.00
2019-05-14T07:47:30.950Z,10212.00
2019-05-14T07:48:30.974Z,10520.00
2019-05-14T07:49:30.981Z,10600.00
2019-05-14T07:50:31.008Z,11116.00
2019-05-14T07:51:31.023Z,10656.00
2019-05-14T07:52:31.040Z,11040.00
2019-05-14T07:53:38.543Z,10828.00
2019-05-14T07:54:31.072Z,10768.00
2019-05-14T07:55:31.084Z,10956.00
2019-05-14T07:56:31.097Z,10980.00
2019-05-14T07:57:31.109Z,11196.00
2019-05-14T07:58:31.124Z,11104.00
2019-05-14T07:59:31.148Z,11324.00
2019-05-14T08:00:31.160Z,11464.00
2019-05-14T08:01:31.180Z,11296.00
2019-05-14T08:02:31.195Z,11768.00
2019-05-14T08:03:31.201Z,12100.00
2019-05-14T08:04:31.226Z,11704.00
2019-05-14T08:05:31.238Z,11840.00
2019-05-14T08:06:31.248Z,12056.00
2019-05-14T08:07:31.269Z,12464.00
2019-05-14T08:08:31.297Z,12736.00
2019-05-14T08:09:31.359Z,12136.00
2019-05-14T08:10:31.318Z,12184.00
2019-05-14T08:11:31.338Z,12636.00
2019-05-14T08:12:31.351Z,12948.00
2019-05-14T08:13:31.363Z,13068.00
2019-05-14T08:14:42.103Z,13348.00
2019-05-14T08:15:31.395Z,11728.00
2019-05-14T08:16:31.515Z,13108.00
2019-05-14T08:17:31.427Z,13716.00
2019-05-14T08:18:31.449Z,13788.00
2019-05-14T08:19:34.311Z,14004.00
2019-05-14T08:20:31.473Z,11112.00
2019-05-14T08:21:31.491Z,14452.00
2019-05-14T08:22:31.513Z,15056.00
2019-05-14T08:23:31.521Z,14752.00
2019-05-14T08:24:31.551Z,15012.00
2019-05-14T08:25:31.559Z,14940.00
2019-05-14T08:26:31.587Z,15092.00
2019-05-14T08:27:31.587Z,15328.00
2019-05-14T08:28:31.606Z,15412.00
2019-05-14T08:29:31.621Z,15680.00
2019-05-14T08:30:31.638Z,16012.00
2019-05-14T08:31:31.651Z,16276.00
2019-05-14T08:32:31.682Z,16356.00
2019-05-14T08:33:31.687Z,16896.00
2019-05-14T08:34:32.396Z,17280.00
2019-05-14T08:35:34.223Z,17920.00
2019-05-14T08:36:31.735Z,18112.00
2019-05-14T08:37:31.760Z,17728.00
2019-05-14T08:38:31.764Z,17920.00
2019-05-14T08:39:31.777Z,18816.00
2019-05-14T08:40:31.798Z,8932.00
2019-05-14T08:41:31.815Z,19840.00
2019-05-14T08:42:34.100Z,20160.00
2019-05-14T08:43:31.850Z,20288.00
2019-05-14T08:44:31.869Z,20096.00
2019-05-14T08:45:31.904Z,20288.00
2019-05-14T08:46:31.900Z,8728.00
2019-05-14T08:47:31.918Z,21248.00
2019-05-14T08:48:31.944Z,20512.00
2019-05-14T08:49:43.936Z,20640.00
2019-05-14T08:50:31.962Z,20832.00
2019-05-14T08:51:31.985Z,21344.00
2019-05-14T08:52:31.998Z,20960.00
2019-05-14T08:53:32.031Z,21408.00
2019-05-14T08:54:32.051Z,21888.00
2019-05-14T08:55:32.049Z,21280.00
2019-05-14T08:56:32.065Z,21376.00
2019-05-14T08:57:32.133Z,21920.00
2019-05-14T08:58:32.093Z,22144.00
2019-05-14T08:59:32.115Z,10488.00
2019-05-14T09:00:32.135Z,11648.00
2019-05-14T09:01:32.142Z,22976.00
2019-05-14T09:02:32.168Z,13024.00
2019-05-14T09:03:32.182Z,19712.00
2019-05-14T09:04:32.202Z,21952.00
2019-05-14T09:05:32.216Z,9852.00
2019-05-14T09:06:32.239Z,10028.00
2019-05-14T09:07:32.262Z,10304.00
2019-05-14T09:08:32.257Z,10316.00
2019-05-14T09:09:32.277Z,10348.00
2019-05-14T09:10:32.296Z,11240.00
2019-05-14T09:11:35.337Z,10544.00
2019-05-14T09:12:32.330Z,11508.00
2019-05-14T09:13:32.339Z,28448.00
2019-05-14T09:14:32.358Z,10124.00
2019-05-14T09:15:32.387Z,9272.00
2019-05-14T09:16:45.917Z,9060.00
2019-05-14T09:17:32.398Z,8828.00
2019-05-14T09:18:32.415Z,9328.00
2019-05-14T09:19:32.433Z,11092.00
2019-05-14T09:21:32.455Z,26560.00
2019-05-14T09:23:32.488Z,25440.00
2019-05-14T09:24:32.497Z,25472.00
2019-05-14T09:25:32.534Z,24992.00
2019-05-14T09:26:32.537Z,8800.00
2019-05-14T09:27:32.551Z,21568.00
2019-05-14T09:28:32.559Z,22976.00
2019-05-14T09:29:32.582Z,13964.00
2019-05-14T09:30:32.593Z,15912.00
2019-05-14T09:31:32.609Z,9472.00
2019-05-14T09:32:32.632Z,9372.00
2019-05-14T09:33:32.636Z,9084.00
2019-05-14T09:34:32.653Z,9288.00
2019-05-14T09:35:32.668Z,25312.00
2019-05-14T09:36:32.678Z,26144.00
2019-05-14T09:37:32.694Z,26560.00
2019-05-14T09:38:32.706Z,26784.00
2019-05-14T09:39:32.723Z,27776.00
2019-05-14T09:40:32.744Z,11016.00
2019-05-14T09:41:32.757Z,10132.00
2019-05-14T09:42:32.770Z,10228.00
2019-05-14T09:43:32.784Z,10676.00
2019-05-14T09:44:32.797Z,10716.00
2019-05-14T09:45:32.816Z,10540.00
2019-05-14T09:46:32.832Z,10768.00
2019-05-14T09:47:32.848Z,10352.00
2019-05-14T09:48:32.852Z,10224.00
2019-05-14T09:49:32.876Z,9220.00
2019-05-14T09:50:32.887Z,8696.00
2019-05-14T09:51:32.900Z,8712.00
2019-05-14T09:52:32.917Z,8720.00
2019-05-14T09:53:32.937Z,8668.00
2019-05-14T09:54:32.941Z,9916.00
2019-05-14T09:55:32.946Z,17472.00
2019-05-14T09:56:33.048Z,15732.00
2019-05-14T09:57:32.981Z,29056.00
2019-05-14T09:58:32.993Z,10508.00
2019-05-14T09:59:33.023Z,27872.00
2019-05-14T10:00:33.025Z,21248.00
2019-05-14T10:01:33.038Z,27200.00
2019-05-14T10:02:33.056Z,27424.00
2019-05-14T10:03:33.055Z,27584.00
2019-05-14T10:04:33.126Z,9640.00
2019-05-14T10:05:33.091Z,8324.00
2019-05-14T10:06:33.100Z,8420.00
2019-05-14T10:07:33.125Z,8856.00
2019-05-14T10:08:33.138Z,9336.00
2019-05-14T10:09:33.152Z,9324.00
2019-05-14T10:10:33.170Z,9124.00
2019-05-14T10:11:33.171Z,8528.00
2019-05-14T10:12:33.187Z,8164.00
2019-05-14T10:13:33.201Z,8152.00
2019-05-14T10:14:33.234Z,8208.00
2019-05-14T10:15:33.238Z,9476.00
2019-05-14T10:16:33.247Z,14456.00
2019-05-14T10:17:33.275Z,28096.00
2019-05-14T10:18:33.276Z,27392.00
2019-05-14T10:19:33.288Z,28288.00
2019-05-14T10:20:41.086Z,27936.00
2019-05-14T10:21:33.324Z,28736.00
2019-05-14T10:22:33.328Z,28512.00
2019-05-14T10:23:33.468Z,29152.00
2019-05-14T10:25:33.369Z,10200.00
2019-05-14T10:26:33.384Z,11044.00
2019-05-14T10:27:33.398Z,10780.00
2019-05-14T10:28:33.410Z,8972.00
2019-05-14T10:29:33.444Z,8228.00
2019-05-14T10:30:33.461Z,8208.00
2019-05-14T10:31:33.470Z,8836.00
2019-05-14T10:32:33.483Z,28288.00
2019-05-14T10:33:33.493Z,11320.00
2019-05-14T10:34:33.510Z,19808.00
2019-05-14T10:35:33.524Z,30208.00
2019-05-14T10:36:33.529Z,29920.00
2019-05-14T10:37:33.555Z,14848.00
2019-05-14T10:38:33.564Z,10788.00
2019-05-14T10:39:33.582Z,9940.00
2019-05-14T10:40:33.606Z,30048.00
2019-05-14T10:41:33.615Z,28640.00
2019-05-14T10:42:33.617Z,12716.00
2019-05-14T10:43:33.634Z,29600.00
2019-05-14T10:44:33.668Z,11276.00
2019-05-14T10:45:33.671Z,26816.00
2019-05-14T10:46:33.689Z,27296.00
2019-05-14T10:47:33.707Z,27392.00
2019-05-14T10:48:33.786Z,9328.00
2019-05-14T10:49:33.730Z,11492.00
2019-05-14T10:50:37.870Z,9144.00
2019-05-14T10:51:33.758Z,9480.00
2019-05-14T10:52:33.781Z,11984.00
2019-05-14T10:53:33.812Z,9228.00
2019-05-14T10:54:33.800Z,9088.00
2019-05-14T10:55:33.856Z,10260.00
2019-05-14T10:56:33.834Z,28704.00
2019-05-14T10:57:33.861Z,28448.00
2019-05-14T10:58:34.210Z,28160.00
2019-05-14T10:59:33.912Z,27488.00
2019-05-14T11:00:33.912Z,27232.00
2019-05-14T11:01:33.914Z,27296.00
2019-05-14T11:02:33.947Z,27712.00
2019-05-14T11:03:33.930Z,27392.00
2019-05-14T11:04:34.556Z,27232.00
2019-05-14T11:05:33.959Z,27872.00
2019-05-14T11:06:34.001Z,27552.00
2019-05-14T11:07:34.019Z,20416.00
2019-05-14T11:08:34.109Z,28128.00
2019-05-14T11:09:34.035Z,15788.00
2019-05-14T11:10:34.133Z,8788.00
2019-05-14T11:11:34.151Z,8684.00
2019-05-14T11:12:34.232Z,11408.00
2019-05-14T11:13:34.288Z,12228.00
2019-05-14T11:14:34.356Z,28064.00
2019-05-14T11:15:34.414Z,23744.00
2019-05-14T11:16:34.467Z,10048.00
2019-05-14T11:17:34.297Z,9364.00
2019-05-14T11:18:34.188Z,29120.00
2019-05-14T11:19:34.303Z,28352.00
2019-05-14T11:20:34.203Z,27456.00
2019-05-14T11:21:34.214Z,9216.00
2019-05-14T11:22:34.240Z,24416.00
2019-05-14T11:23:34.267Z,9320.00
2019-05-14T11:24:34.274Z,26336.00
2019-05-14T11:25:34.277Z,26336.00
2019-05-14T11:26:34.314Z,26624.00
2019-05-14T11:27:34.320Z,26592.00
2019-05-14T11:28:34.335Z,26176.00
2019-05-14T11:29:34.345Z,26784.00
2019-05-14T11:30:34.376Z,27200.00
2019-05-14T11:31:34.516Z,28384.00
2019-05-14T11:32:34.386Z,26496.00
2019-05-14T11:33:34.407Z,26112.00
2019-05-14T11:34:34.433Z,25504.00
2019-05-14T11:35:34.449Z,25120.00
2019-05-14T11:36:34.468Z,24640.00
2019-05-14T11:37:34.497Z,24096.00
2019-05-14T11:38:37.555Z,24544.00
2019-05-14T11:39:34.509Z,24288.00
2019-05-14T11:40:34.543Z,24416.00
2019-05-14T11:41:34.539Z,24032.00
2019-05-14T11:42:34.565Z,24000.00
2019-05-14T11:43:34.571Z,24224.00
2019-05-14T11:44:34.596Z,23488.00
2019-05-14T11:45:34.620Z,23648.00
2019-05-14T11:46:47.594Z,9996.00
2019-05-14T11:47:34.655Z,9356.00
2019-05-14T11:48:34.675Z,8864.00
2019-05-14T11:49:34.704Z,23936.00
2019-05-14T11:50:34.723Z,10864.00
2019-05-14T11:51:58.946Z,11312.00
2019-05-14T11:52:34.732Z,23200.00
2019-05-14T11:53:34.791Z,22080.00
2019-05-14T11:54:34.761Z,14500.00
2019-05-14T11:55:34.776Z,23872.00
2019-05-14T11:56:34.786Z,23360.00
2019-05-14T11:57:34.818Z,22688.00
2019-05-14T11:58:34.837Z,22336.00
2019-05-14T11:59:34.847Z,22656.00
2019-05-14T12:00:34.860Z,23008.00
2019-05-14T12:01:34.878Z,22624.00
2019-05-14T12:02:34.908Z,22880.00
2019-05-14T12:03:34.966Z,23072.00
2019-05-14T12:04:35.056Z,23200.00
2019-05-14T12:05:34.996Z,23392.00
2019-05-14T12:06:34.956Z,23584.00
2019-05-14T12:07:34.987Z,23008.00
2019-05-14T12:08:35.011Z,9620.00
2019-05-14T12:09:35.673Z,12888.00
2019-05-14T12:10:35.017Z,23392.00
2019-05-14T12:11:35.043Z,22944.00
2019-05-14T12:12:35.073Z,22720.00
2019-05-14T12:13:35.073Z,21760.00
2019-05-14T12:14:35.099Z,21600.00
2019-05-14T12:15:35.110Z,22176.00
2019-05-14T12:16:35.130Z,22784.00
2019-05-14T12:17:35.145Z,22368.00
2019-05-14T12:18:35.158Z,22784.00
2019-05-14T12:19:35.208Z,23488.00
2019-05-14T12:20:35.208Z,23840.00
2019-05-14T12:21:35.215Z,9168.00
2019-05-14T12:22:35.231Z,8896.00
2019-05-14T12:23:35.256Z,8504.00
2019-05-14T12:24:35.271Z,17312.00
2019-05-14T12:25:35.397Z,23008.00
2019-05-14T12:26:35.294Z,23648.00
2019-05-14T12:27:35.322Z,23936.00
2019-05-14T12:28:35.355Z,23648.00
2019-05-14T12:29:35.356Z,23712.00
2019-05-14T12:31:35.379Z,23744.00
2019-05-14T12:32:35.422Z,8940.00
2019-05-14T12:33:35.410Z,21504.00
2019-05-14T12:34:35.431Z,9508.00
2019-05-14T12:35:35.454Z,12272.00
2019-05-14T12:36:35.503Z,23392.00
2019-05-14T12:37:38.483Z,23200.00
2019-05-14T12:38:35.509Z,23840.00
2019-05-14T12:39:35.519Z,23488.00
2019-05-14T12:40:38.099Z,23488.00
2019-05-14T12:41:35.545Z,24096.00
2019-05-14T12:42:35.576Z,24608.00
2019-05-14T12:43:35.585Z,24352.00
2019-05-14T12:44:40.044Z,24096.00
2019-05-14T12:45:35.635Z,23968.00
2019-05-14T12:46:35.638Z,17536.00
2019-05-14T12:47:38.251Z,22976.00
2019-05-14T12:48:38.667Z,22592.00
2019-05-14T12:49:35.696Z,21536.00
2019-05-14T12:50:35.713Z,21856.00
2019-05-14T12:51:39.298Z,22336.00
2019-05-14T12:52:35.752Z,22080.00
2019-05-14T12:53:35.768Z,22304.00
2019-05-14T12:54:38.448Z,22112.00
2019-05-14T12:55:35.831Z,22080.00
2019-05-14T12:56:38.788Z,22112.00
2019-05-14T12:57:39.032Z,21792.00
2019-05-14T12:58:42.899Z,21632.00
2019-05-14T12:59:37.908Z,20896.00
2019-05-14T13:00:35.885Z,20480.00
2019-05-14T13:01:35.918Z,20000.00
2019-05-14T13:02:35.926Z,20128.00
2019-05-14T13:03:35.949Z,19840.00
2019-05-14T13:04:35.965Z,19904.00
2019-05-14T13:05:35.989Z,20032.00
2019-05-14T13:06:36.002Z,20384.00
2019-05-14T13:07:36.022Z,20416.00
2019-05-14T13:08:38.398Z,20672.00
2019-05-14T13:09:38.336Z,20992.00
2019-05-14T13:10:38.416Z,21376.00
2019-05-14T13:11:40.973Z,20480.00
2019-05-14T13:12:38.763Z,21632.00
2019-05-14T13:13:36.128Z,21152.00
2019-05-14T13:14:36.152Z,17792.00
2019-05-14T13:15:39.078Z,19680.00
2019-05-14T13:16:36.197Z,9400.00
2019-05-14T13:17:38.577Z,9176.00
2019-05-14T13:18:38.745Z,9344.00
2019-05-14T13:19:37.995Z,10592.00
2019-05-14T13:20:38.710Z,8744.00
2019-05-14T13:21:38.749Z,8476.00
2019-05-14T13:22:42.427Z,8328.00
2019-05-14T13:23:38.387Z,19392.00
2019-05-14T13:24:39.450Z,19104.00
2019-05-14T13:25:39.137Z,19616.00
2019-05-14T13:26:38.815Z,19072.00
2019-05-14T13:27:38.954Z,19104.00
2019-05-14T13:28:39.280Z,19552.00
2019-05-14T13:29:36.411Z,8716.00
2019-05-14T13:30:36.428Z,9296.00
2019-05-14T13:31:36.518Z,19872.00
2019-05-14T13:32:39.053Z,10424.00
2019-05-14T13:33:39.029Z,8804.00
2019-05-14T13:34:39.368Z,8668.00
2019-05-14T13:35:38.869Z,9320.00
2019-05-14T13:36:39.503Z,12704.00
2019-05-14T13:37:39.550Z,14636.00
2019-05-14T13:38:39.331Z,15936.00
2019-05-14T13:39:39.584Z,16896.00
2019-05-14T13:40:39.002Z,9624.00
2019-05-14T13:41:41.561Z,18528.00
2019-05-14T13:42:39.385Z,17824.00
2019-05-14T13:43:39.117Z,17120.00
2019-05-14T13:44:38.489Z,16896.00
2019-05-14T13:45:39.049Z,17408.00
2019-05-14T13:46:36.696Z,17312.00
2019-05-14T13:47:38.727Z,16384.00
2019-05-14T13:48:42.729Z,16480.00
2019-05-14T13:49:39.115Z,14864.00
2019-05-14T13:50:39.534Z,16864.00
2019-05-14T13:51:38.765Z,16768.00
2019-05-14T13:52:40.415Z,9228.00
2019-05-14T13:53:39.085Z,7748.00
2019-05-14T13:54:39.153Z,7360.00
2019-05-14T13:55:44.228Z,7316.00
2019-05-14T13:56:38.885Z,7512.00
2019-05-14T13:57:39.816Z,7612.00
2019-05-14T13:58:36.890Z,7404.00
2019-05-14T13:59:43.780Z,7512.00
2019-05-14T14:00:36.911Z,7756.00
2019-05-14T14:01:36.974Z,8016.00
2019-05-14T14:02:36.975Z,8392.00
2019-05-14T14:03:47.003Z,8716.00
2019-05-14T14:04:38.185Z,17440.00
2019-05-14T14:05:39.243Z,16288.00
2019-05-14T14:06:39.385Z,14284.00
2019-05-14T14:07:39.469Z,12244.00
2019-05-14T14:08:41.894Z,14676.00
2019-05-14T14:09:39.549Z,16192.00
2019-05-14T14:10:44.518Z,17280.00
2019-05-14T14:11:38.343Z,16736.00
2019-05-14T14:12:39.923Z,16544.00
2019-05-14T14:13:39.191Z,16288.00
2019-05-14T14:14:38.588Z,16000.00
2019-05-14T14:15:38.420Z,15712.00
2019-05-14T14:16:39.543Z,15332.00
2019-05-14T14:17:39.185Z,14308.00
2019-05-14T14:18:39.457Z,11840.00
2019-05-14T14:19:38.853Z,13520.00
2019-05-14T14:20:39.423Z,13376.00
2019-05-14T14:21:39.750Z,14680.00
2019-05-14T14:22:40.041Z,14440.00
2019-05-14T14:23:39.237Z,13360.00
2019-05-14T14:24:38.656Z,13384.00
2019-05-14T14:25:39.466Z,13828.00
2019-05-14T14:26:39.333Z,13596.00
2019-05-14T14:27:40.659Z,14032.00
2019-05-14T14:28:39.661Z,13760.00
2019-05-14T14:29:39.542Z,13568.00
2019-05-14T14:30:39.452Z,13596.00
2019-05-14T14:31:41.418Z,14208.00
2019-05-14T14:32:40.210Z,13384.00
2019-05-14T14:33:39.120Z,12980.00
2019-05-14T14:34:41.253Z,8176.00
2019-05-14T14:35:38.773Z,10660.00
2019-05-14T14:36:38.640Z,8200.00
2019-05-14T14:37:39.673Z,11920.00
2019-05-14T14:38:40.038Z,10880.00
2019-05-14T14:39:37.581Z,8492.00
2019-05-14T14:40:39.606Z,11448.00
2019-05-14T14:41:38.421Z,13964.00
2019-05-14T14:42:40.106Z,13440.00
2019-05-14T14:43:42.813Z,13476.00
2019-05-14T14:44:39.310Z,14116.00
2019-05-14T14:45:44.714Z,13664.00
2019-05-14T14:46:39.205Z,13824.00
2019-05-14T14:47:39.360Z,13604.00
2019-05-14T14:48:39.619Z,13644.00
2019-05-14T14:49:43.429Z,13044.00
2019-05-14T14:51:44.089Z,13100.00
2019-05-14T14:52:37.814Z,12808.00
2019-05-14T14:53:51.980Z,11868.00
2019-05-14T14:54:38.235Z,10428.00
2019-05-14T14:55:39.934Z,11520.00
2019-05-14T14:56:38.060Z,11836.00
2019-05-14T14:57:44.545Z,11772.00
2019-05-14T14:58:39.156Z,8188.00
2019-05-14T14:59:39.082Z,8140.00
2019-05-14T15:00:38.144Z,12152.00
2019-05-14T15:01:40.348Z,10756.00
2019-05-14T15:02:40.789Z,7860.00
2019-05-14T15:03:37.967Z,7564.00
2019-05-14T15:04:39.588Z,7472.00
2019-05-14T15:05:38.979Z,7632.00
2019-05-14T15:06:39.729Z,11060.00
2019-05-14T15:07:40.749Z,10884.00
2019-05-14T15:08:38.990Z,10952.00
2019-05-14T15:09:40.471Z,11240.00
2019-05-14T15:10:39.471Z,10876.00
2019-05-14T15:11:39.704Z,11176.00
2019-05-14T15:12:40.030Z,11160.00
2019-05-14T15:13:39.101Z,10916.00
2019-05-14T15:14:39.545Z,11260.00
2019-05-14T15:15:39.370Z,11644.00
2019-05-14T15:16:39.053Z,10844.00
2019-05-14T15:17:39.284Z,10204.00
2019-05-14T15:18:38.747Z,10296.00
2019-05-14T15:19:39.528Z,8924.00
2019-05-14T15:20:38.242Z,9984.00
2019-05-14T15:21:38.273Z,10464.00
2019-05-14T15:22:38.304Z,10260.00
2019-05-14T15:23:42.980Z,10012.00
2019-05-14T15:24:38.307Z,9144.00
2019-05-14T15:25:38.402Z,9420.00
2019-05-14T15:26:38.391Z,9388.00
2019-05-14T15:27:38.754Z,9788.00
2019-05-14T15:28:38.758Z,9652.00
2019-05-14T15:29:39.774Z,9876.00
2019-05-14T15:30:39.541Z,9960.00
2019-05-14T15:31:38.665Z,9680.00
2019-05-14T15:32:38.445Z,9384.00
2019-05-14T15:33:38.460Z,8812.00
2019-05-14T15:34:38.482Z,8964.00
2019-05-14T15:35:38.484Z,8652.00
2019-05-14T15:36:41.300Z,8640.00
2019-05-14T15:37:42.240Z,8268.00
2019-05-14T15:38:39.606Z,8152.00
2019-05-14T15:39:39.061Z,8212.00
2019-05-14T15:40:40.059Z,8048.00
2019-05-14T15:41:39.542Z,8172.00
2019-05-14T15:42:39.517Z,7676.00
2019-05-14T15:43:39.540Z,7740.00
2019-05-14T15:44:48.836Z,7344.00
2019-05-14T15:45:38.633Z,7492.00
2019-05-14T15:46:41.787Z,7140.00
2019-05-14T15:48:39.493Z,7160.00
2019-05-14T15:49:38.987Z,7012.00
2019-05-14T15:50:39.081Z,6608.00
2019-05-14T15:51:39.784Z,5612.00
2019-05-14T15:52:39.671Z,5940.00
2019-05-14T15:53:38.864Z,5320.00
2019-05-14T15:54:46.308Z,5448.00
2019-05-14T15:55:38.773Z,5500.00
2019-05-14T15:56:39.477Z,5536.00
2019-05-14T15:57:39.770Z,5752.00
2019-05-14T15:58:39.182Z,7468.00
2019-05-14T15:59:39.249Z,7120.00
2019-05-14T16:00:38.893Z,6044.00
2019-05-14T16:01:39.773Z,6772.00
2019-05-14T16:02:39.748Z,6520.00
2019-05-14T16:03:41.407Z,7076.00
2019-05-14T16:05:39.541Z,6628.00
2019-05-14T16:06:38.932Z,6564.00
2019-05-14T16:07:39.324Z,6436.00
2019-05-14T16:08:40.112Z,6376.00
2019-05-14T16:09:39.728Z,5564.00
2019-05-14T16:10:39.793Z,4848.00
2019-05-14T16:11:39.426Z,6260.00
2019-05-14T16:12:39.758Z,6332.00
2019-05-14T16:13:39.873Z,6532.00
2019-05-14T16:14:39.061Z,6544.00
2019-05-14T16:15:39.127Z,6416.00
2019-05-14T16:16:39.316Z,6236.00
2019-05-14T16:17:47.543Z,5872.00
2019-05-14T16:18:39.062Z,5396.00
2019-05-14T16:20:39.417Z,5828.00
2019-05-14T16:21:39.111Z,5028.00
2019-05-14T16:22:40.128Z,5928.00
2019-05-14T16:23:39.139Z,5780.00
2019-05-14T16:24:53.145Z,5748.00
2019-05-14T16:25:39.146Z,5796.00
2019-05-14T16:26:39.157Z,5348.00
2019-05-14T16:27:39.805Z,4324.00
2019-05-14T16:28:39.812Z,4736.00
2019-05-14T16:29:45.495Z,5080.00
2019-05-14T16:30:39.849Z,4344.00
2019-05-14T16:31:43.474Z,4328.00
2019-05-14T16:32:39.662Z,5360.00
2019-05-14T16:33:40.404Z,4168.00
2019-05-14T16:34:40.996Z,4120.00
2019-05-14T16:35:39.404Z,4076.00
2019-05-14T16:36:41.175Z,4008.00
2019-05-14T16:37:40.124Z,3924.00
2019-05-14T16:39:58.324Z,3908.00
2019-05-14T16:49:51.866Z,6096.00
2019-05-14T16:50:51.889Z,5828.00
2019-05-14T16:51:51.892Z,6072.00
2019-05-14T16:52:51.896Z,6080.00
2019-05-14T16:53:51.913Z,5860.00
2019-05-14T16:54:51.940Z,5864.00
2019-05-14T16:55:51.934Z,5640.00
2019-05-14T16:56:51.949Z,5672.00
2019-05-14T16:57:51.989Z,4716.00
2019-05-14T16:58:51.969Z,4048.00
2019-05-14T16:59:51.992Z,3436.00
2019-05-14T17:00:51.993Z,3376.00
2019-05-14T17:01:52.008Z,3164.00
2019-05-14T17:02:52.006Z,3076.00
2019-05-14T17:03:52.029Z,3040.00
2019-05-14T17:04:52.035Z,3168.00
2019-05-14T17:05:52.049Z,3128.00
2019-05-14T17:06:52.057Z,2980.00
2019-05-14T17:07:52.074Z,3196.00
2019-05-14T17:08:52.093Z,4868.00
2019-05-14T17:09:52.093Z,4844.00
2019-05-14T17:10:52.103Z,4860.00
2019-05-14T17:11:52.109Z,4876.00
2019-05-14T17:12:57.267Z,4708.00
2019-05-14T17:13:52.133Z,4936.00
2019-05-14T17:14:52.142Z,5008.00
2019-05-14T17:15:52.148Z,4932.00
2019-05-14T17:16:52.167Z,4900.00
2019-05-14T17:17:52.177Z,4836.00
2019-05-14T17:18:52.195Z,4748.00
2019-05-14T17:19:52.196Z,4748.00
2019-05-14T17:20:52.206Z,4784.00
2019-05-14T17:21:52.230Z,4860.00
2019-05-14T17:22:52.227Z,4892.00
2019-05-14T17:23:52.254Z,4880.00
2019-05-14T17:24:52.259Z,4892.00
2019-05-14T17:25:52.265Z,4736.00
2019-05-14T17:26:52.275Z,4708.00
2019-05-14T17:27:52.279Z,4520.00
2019-05-14T17:28:52.293Z,4056.00
2019-05-14T17:29:52.310Z,3724.00
2019-05-14T17:30:52.312Z,2896.00
2019-05-14T17:31:52.323Z,2808.00
2019-05-14T17:32:52.338Z,2784.00
2019-05-14T17:33:52.348Z,3848.00
2019-05-14T17:34:52.353Z,2736.00
2019-05-14T17:35:52.368Z,2692.00
2019-05-14T17:36:52.374Z,3552.00
2019-05-14T17:37:52.389Z,2952.00
2019-05-14T17:38:52.407Z,2936.00
2019-05-14T17:39:52.411Z,2864.00
2019-05-14T17:40:52.418Z,2428.00
2019-05-14T17:41:52.424Z,2372.00
2019-05-14T17:42:52.439Z,2280.00
2019-05-14T17:43:52.461Z,2288.00
2019-05-14T17:44:52.462Z,2264.00
2019-05-14T17:45:52.476Z,2288.00
2019-05-14T17:46:52.474Z,2312.00
2019-05-14T17:47:52.501Z,2284.00
2019-05-14T17:48:52.522Z,2292.00
2019-05-14T17:49:52.514Z,2512.00
2019-05-14T17:50:52.524Z,2972.00
2019-05-14T17:51:52.618Z,3108.00
2019-05-14T17:52:56.498Z,3056.00
2019-05-14T17:53:52.555Z,3180.00
2019-05-14T17:55:52.609Z,3268.00
2019-05-14T17:56:52.605Z,3460.00
2019-05-14T17:57:58.437Z,3384.00
2019-05-14T17:58:52.604Z,2988.00
2019-05-14T17:59:52.619Z,2448.00
2019-05-14T18:00:52.624Z,2456.00
2019-05-14T18:01:52.632Z,2788.00
2019-05-14T18:02:52.650Z,2380.00
2019-05-14T18:03:52.654Z,3096.00
2019-05-14T18:04:56.157Z,2260.00
2019-05-14T18:05:52.672Z,1996.00
2019-05-14T18:06:52.690Z,1888.00
2019-05-14T18:07:52.695Z,1960.00
2019-05-14T18:08:52.702Z,2056.00
2019-05-14T18:09:52.717Z,2360.00
2019-05-14T18:10:52.726Z,2480.00
2019-05-14T18:11:52.753Z,2352.00
2019-05-14T18:12:52.743Z,2180.00
2019-05-14T18:13:52.757Z,2288.00
2019-05-14T18:14:52.765Z,2184.00
2019-05-14T18:15:52.778Z,2068.00
2019-05-14T18:16:52.792Z,2048.00
2019-05-14T18:17:52.802Z,2008.00
2019-05-14T18:18:52.811Z,1968.00
2019-05-14T18:19:52.815Z,1932.00
2019-05-14T18:20:52.829Z,1916.00
2019-05-14T18:21:52.839Z,1820.00
2019-05-14T18:22:52.850Z,1660.00
2019-05-14T18:23:52.908Z,1588.00
2019-05-14T18:24:52.864Z,1560.00
2019-05-14T18:26:04.745Z,1552.00
2019-05-14T18:26:52.886Z,1572.00
2019-05-14T18:27:52.895Z,1504.00
2019-05-14T18:28:52.898Z,1452.00